Terminal Aerodrome Forecast
Issued by NWS Paducah, KY

Home | Current Version | Previous Version | Text Only | Print | Product List | Glossary On
Versions: 1 2 3 4 5 6 7 8 9 10 11 12 13 14 15 16 17
000
FTUS43 KPAH 191133 AAC
TAFPAH
TAF AMD
KPAH 191133Z 1912/2012 00000KT 1/4SM FG VV002
     FM191700 VRB03KT 4SM BR BKN004
     FM192100 18004KT P6SM SCT010
     FM200000 14003KT 6SM BR BKN010
     FM200300 13003KT 3SM BR BKN005=

USA.gov is the U.S. government's official web portal to all federal, state and local government web resources and services.